createdAt,value
2018-08-06T00:02:23.168Z,8.13
2018-08-06T00:04:51.675Z,9.03
2018-08-06T00:07:20.165Z,8.83
2018-08-06T00:09:48.659Z,8.93
2018-08-06T00:12:17.158Z,8.67
2018-08-06T00:14:45.674Z,8.60
2018-08-06T00:17:14.190Z,8.73
2018-08-06T00:19:42.754Z,8.63
2018-08-06T00:22:11.256Z,8.50
2018-08-06T00:24:39.765Z,9.23
2018-08-06T00:27:08.279Z,8.70
2018-08-06T00:29:36.844Z,8.67
2018-08-06T00:32:05.639Z,8.33
2018-08-06T00:34:34.139Z,8.70
2018-08-06T00:37:02.639Z,9.07
2018-08-06T00:39:31.131Z,8.93
2018-08-06T00:41:59.629Z,9.23
2018-08-06T00:44:28.123Z,8.77
2018-08-06T00:46:56.625Z,9.17
2018-08-06T00:49:25.128Z,8.93
2018-08-06T00:51:53.626Z,8.80
2018-08-06T00:54:22.128Z,8.80
2018-08-06T00:56:50.635Z,9.07
2018-08-06T00:59:18.809Z,8.30
2018-08-06T01:01:46.981Z,8.53
2018-08-06T01:04:15.488Z,8.73
2018-08-06T01:06:43.990Z,9.20
2018-08-06T01:09:12.554Z,8.70
2018-08-06T01:11:41.055Z,8.60
2018-08-06T01:14:09.547Z,8.60
2018-08-06T01:16:38.063Z,9.13
2018-08-06T01:19:06.591Z,9.27
2018-08-06T01:21:35.111Z,9.10
2018-08-06T01:24:03.613Z,8.83
2018-08-06T01:26:32.136Z,9.03
2018-08-06T01:29:00.631Z,8.80
2018-08-06T01:31:29.193Z,8.63
2018-08-06T01:33:58.167Z,8.97
2018-08-06T01:36:26.655Z,9.03
2018-08-06T01:38:55.155Z,8.60
2018-08-06T01:41:23.656Z,9.30
2018-08-06T01:43:52.163Z,9.03
2018-08-06T01:46:20.673Z,9.23
2018-08-06T01:48:49.489Z,9.17
2018-08-06T01:51:18.012Z,9.10
2018-08-06T01:53:46.543Z,9.73
2018-08-06T01:56:15.059Z,9.10
2018-08-06T01:58:43.564Z,9.13
2018-08-06T02:01:12.067Z,8.60
2018-08-06T02:03:40.567Z,9.20
2018-08-06T02:06:09.071Z,9.53
2018-08-06T02:08:37.568Z,9.43
2018-08-06T02:11:06.067Z,8.83
2018-08-06T02:13:34.570Z,9.33
2018-08-06T02:16:03.423Z,9.27
2018-08-06T02:18:32.271Z,8.93
2018-08-06T02:21:00.779Z,9.50
2018-08-06T02:23:29.294Z,9.10
2018-08-06T02:25:57.805Z,9.23
2018-08-06T02:28:26.294Z,9.17
2018-08-06T02:30:54.844Z,9.50
2018-08-06T02:33:23.026Z,9.30
2018-08-06T02:35:51.545Z,8.50
2018-08-06T02:38:20.057Z,8.87
2018-08-06T02:40:48.568Z,9.10
2018-08-06T02:43:17.075Z,8.90
2018-08-06T02:45:45.580Z,9.40
2018-08-06T02:48:14.081Z,9.00
2018-08-06T02:50:42.587Z,9.20
2018-08-06T02:53:11.227Z,9.00
2018-08-06T02:55:39.735Z,9.07
2018-08-06T02:58:08.226Z,9.27
2018-08-06T03:00:36.389Z,9.10
2018-08-06T03:03:04.911Z,9.27
2018-08-06T03:05:33.412Z,8.77
2018-08-06T03:08:02.231Z,8.97
2018-08-06T03:10:31.036Z,8.90
2018-08-06T03:12:59.840Z,9.70
2018-08-06T03:15:28.355Z,9.80
2018-08-06T03:17:56.867Z,9.70
2018-08-06T03:20:25.384Z,9.53
2018-08-06T03:22:53.895Z,9.83
2018-08-06T03:25:22.407Z,9.03
2018-08-06T03:27:50.920Z,9.40
2018-08-06T03:30:19.090Z,9.87
2018-08-06T03:32:48.896Z,9.10
2018-08-06T03:35:17.592Z,9.43
2018-08-06T03:37:45.761Z,9.73
2018-08-06T03:40:14.361Z,9.57
2018-08-06T03:42:42.859Z,11.30
2018-08-06T03:45:12.335Z,9.60
2018-08-06T03:47:41.542Z,9.83
2018-08-06T03:50:11.556Z,9.83
2018-08-06T03:52:39.786Z,9.67
2018-08-06T03:55:09.842Z,9.50
2018-08-06T03:57:38.851Z,9.03
2018-08-06T04:00:09.543Z,8.90
2018-08-06T04:02:38.062Z,9.80
2018-08-06T04:05:08.387Z,10.13
2018-08-06T04:07:36.888Z,9.33
2018-08-06T04:10:06.127Z,9.33
2018-08-06T04:12:34.638Z,9.23
2018-08-06T04:15:03.049Z,9.50
2018-08-06T04:17:31.555Z,9.77
2018-08-06T04:20:00.080Z,9.23
2018-08-06T04:22:28.277Z,9.77
2018-08-06T04:24:56.767Z,9.57
2018-08-06T04:27:25.274Z,10.03
2018-08-06T04:29:53.775Z,10.03
2018-08-06T04:32:22.271Z,10.20
2018-08-06T04:34:50.786Z,9.77
2018-08-06T04:37:19.296Z,9.87
2018-08-06T04:39:48.331Z,10.00
2018-08-06T04:42:17.231Z,10.13
2018-08-06T04:44:45.734Z,10.47
2018-08-06T04:47:14.235Z,10.30
2018-08-06T04:49:42.735Z,9.43
2018-08-06T04:52:11.249Z,10.40
2018-08-06T04:54:39.760Z,9.20
2018-08-06T04:57:08.259Z,9.47
2018-08-06T04:59:36.810Z,9.80
2018-08-06T05:02:05.310Z,9.40
2018-08-06T05:04:33.807Z,9.30
2018-08-06T05:07:02.341Z,10.27
2018-08-06T05:09:43.919Z,9.90
2018-08-06T05:12:12.091Z,10.07
2018-08-06T05:14:41.595Z,10.07
2018-08-06T05:17:10.062Z,9.63
2018-08-06T05:19:39.008Z,9.93
2018-08-06T05:22:07.625Z,9.93
2018-08-06T05:24:36.348Z,9.43
2018-08-06T05:27:04.890Z,10.03
2018-08-06T05:29:33.396Z,10.47
2018-08-06T05:32:01.910Z,10.13
2018-08-06T05:34:30.415Z,9.93
2018-08-06T05:36:58.923Z,9.63
2018-08-06T05:39:27.432Z,10.17
2018-08-06T05:41:55.930Z,8.90
2018-08-06T05:44:24.447Z,9.70
2018-08-06T05:46:52.943Z,10.13
2018-08-06T05:49:21.467Z,10.13
2018-08-06T05:51:49.977Z,10.30
2018-08-06T05:54:18.478Z,10.50
2018-08-06T05:56:46.995Z,10.13
2018-08-06T05:59:15.508Z,9.77
2018-08-06T06:01:44.070Z,10.30
2018-08-06T06:04:12.659Z,10.30
2018-08-06T06:06:41.223Z,10.03
2018-08-06T06:09:10.177Z,9.83
2018-08-06T06:11:39.215Z,10.40
2018-08-06T06:14:08.655Z,10.30
2018-08-06T06:16:37.163Z,9.60
2018-08-06T06:19:06.504Z,10.43
2018-08-06T06:21:35.063Z,9.80
2018-08-06T06:24:03.577Z,10.13
2018-08-06T06:26:32.091Z,10.27
2018-08-06T06:29:00.607Z,10.00
2018-08-06T06:31:29.164Z,10.47
2018-08-06T06:33:57.720Z,10.27
2018-08-06T06:36:26.390Z,10.13
2018-08-06T06:38:54.907Z,10.83
2018-08-06T06:41:23.407Z,10.87
2018-08-06T06:43:51.987Z,11.03
2018-08-06T06:46:20.491Z,10.90
2018-08-06T06:48:49.032Z,10.93
2018-08-06T06:51:17.527Z,11.10
2018-08-06T06:53:46.354Z,10.80
2018-08-06T06:56:15.280Z,10.43
2018-08-06T06:58:43.783Z,9.90
2018-08-06T07:01:12.311Z,10.00
2018-08-06T07:03:40.819Z,10.30
2018-08-06T07:06:09.359Z,10.17
2018-08-06T07:08:37.525Z,10.20
2018-08-06T07:11:06.440Z,10.83
2018-08-06T07:13:34.636Z,9.97
2018-08-06T07:16:03.160Z,10.17
2018-08-06T07:18:31.687Z,10.47
2018-08-06T07:21:00.215Z,10.17
2018-08-06T07:23:28.710Z,10.50
2018-08-06T07:25:56.973Z,10.20
2018-08-06T07:28:25.408Z,9.30
2018-08-06T07:30:53.923Z,9.63
2018-08-06T07:33:22.432Z,9.20
2018-08-06T07:35:50.939Z,9.00
2018-08-06T07:38:19.447Z,9.60
2018-08-06T07:40:47.963Z,8.80
2018-08-06T07:43:16.556Z,9.73
2018-08-06T07:45:45.005Z,9.67
2018-08-06T07:48:13.515Z,9.37
2018-08-06T07:50:42.048Z,9.13
2018-08-06T07:53:10.552Z,9.07
2018-08-06T07:55:39.055Z,9.67
2018-08-06T07:58:07.566Z,9.70
2018-08-06T08:00:36.065Z,9.90
2018-08-06T08:03:04.594Z,9.47
2018-08-06T08:05:33.095Z,9.67
2018-08-06T08:08:01.903Z,9.40
2018-08-06T08:10:30.082Z,9.13
2018-08-06T08:12:58.584Z,9.40
2018-08-06T08:15:27.406Z,9.20
2018-08-06T08:17:57.803Z,9.73
2018-08-06T08:20:26.776Z,8.50
2018-08-06T08:22:55.301Z,10.83
2018-08-06T08:25:24.246Z,9.40
2018-08-06T08:27:52.745Z,9.07
2018-08-06T08:30:21.612Z,8.97
2018-08-06T08:32:49.785Z,9.63
2018-08-06T08:35:18.348Z,9.13
2018-08-06T08:37:46.855Z,9.63
2018-08-06T08:40:17.775Z,9.37
2018-08-06T08:42:46.294Z,10.20
2018-08-06T08:45:16.935Z,9.30
2018-08-06T08:47:46.391Z,9.30
2018-08-06T08:50:15.342Z,9.93
2018-08-06T08:52:44.141Z,10.37
2018-08-06T08:55:14.301Z,10.67
2018-08-06T08:57:42.627Z,9.90
2018-08-06T09:00:19.291Z,10.17
2018-08-06T09:02:48.955Z,9.80
2018-08-06T09:05:17.860Z,10.17
2018-08-06T09:07:47.049Z,10.03
2018-08-06T09:10:16.501Z,10.10
2018-08-06T09:12:45.528Z,9.87
2018-08-06T09:15:20.753Z,10.00
2018-08-06T09:17:49.361Z,10.87
2018-08-06T09:20:17.642Z,9.77
2018-08-06T09:22:46.643Z,10.33
2018-08-06T09:25:15.730Z,10.40
2018-08-06T09:27:45.470Z,10.37
2018-08-06T09:30:18.355Z,10.97
2018-08-06T09:32:48.051Z,10.70
2018-08-06T09:35:17.539Z,10.10
2018-08-06T09:37:46.083Z,11.00
2018-08-06T09:40:16.057Z,10.93
2018-08-06T09:42:45.433Z,10.63
2018-08-06T09:45:14.773Z,10.47
2018-08-06T09:47:44.647Z,10.23
2018-08-06T09:50:13.545Z,10.93
2018-08-06T09:52:43.222Z,10.73
2018-08-06T09:55:14.707Z,10.57
2018-08-06T09:57:43.826Z,10.93
2018-08-06T10:00:23.492Z,10.47
2018-08-06T10:02:52.735Z,10.17
2018-08-06T10:05:21.970Z,11.53
2018-08-06T10:07:50.499Z,10.77
2018-08-06T10:10:19.033Z,10.83
2018-08-06T10:12:47.812Z,11.03
2018-08-06T10:15:16.778Z,11.23
2018-08-06T10:17:46.000Z,11.10
2018-08-06T10:20:18.140Z,11.70
2018-08-06T10:22:46.664Z,10.57
2018-08-06T10:25:16.104Z,10.70
2018-08-06T10:27:45.727Z,10.63
2018-08-06T10:30:23.069Z,11.17
2018-08-06T10:32:51.530Z,10.70
2018-08-06T10:35:20.716Z,11.00
2018-08-06T10:37:49.247Z,11.57
2018-08-06T10:40:19.307Z,10.97
2018-08-06T10:42:47.831Z,11.00
2018-08-06T10:45:18.507Z,10.73
2018-08-06T10:47:47.511Z,11.43
2018-08-06T10:50:15.704Z,10.80
2018-08-06T10:52:44.204Z,11.13
2018-08-06T10:55:13.250Z,10.83
2018-08-06T10:57:43.147Z,11.47
2018-08-06T11:00:15.102Z,10.77
2018-08-06T11:02:43.919Z,10.57
2018-08-06T11:05:13.707Z,11.07
2018-08-06T11:07:42.253Z,11.10
2018-08-06T11:10:19.022Z,10.87
2018-08-06T11:12:47.538Z,10.73
2018-08-06T11:15:22.403Z,10.53
2018-08-06T11:17:50.961Z,10.60
2018-08-06T11:20:20.746Z,10.87
2018-08-06T11:22:49.214Z,11.20
2018-08-06T11:25:19.602Z,10.37
2018-08-06T11:27:48.266Z,10.53
2018-08-06T11:30:18.751Z,10.70
2018-08-06T11:32:48.133Z,10.53
2018-08-06T11:35:17.359Z,11.03
2018-08-06T11:37:45.900Z,10.60
2018-08-06T11:40:15.766Z,10.77
2018-08-06T11:42:44.999Z,11.00
2018-08-06T11:45:15.169Z,11.40
2018-08-06T11:47:44.058Z,10.80
2018-08-06T11:50:12.903Z,10.43
2018-08-06T11:52:41.586Z,10.30
2018-08-06T11:55:10.492Z,10.80
2018-08-06T11:57:39.586Z,10.93
2018-08-06T12:00:13.436Z,10.10
2018-08-06T12:02:41.960Z,10.13
2018-08-06T12:05:10.480Z,10.63
2018-08-06T12:07:39.539Z,10.50
2018-08-06T12:10:09.889Z,10.47
2018-08-06T12:12:38.403Z,10.37
2018-08-06T12:15:08.245Z,11.07
2018-08-06T12:17:37.073Z,10.30
2018-08-06T12:20:09.631Z,11.03
2018-08-06T12:22:38.715Z,10.13
2018-08-06T12:25:07.661Z,10.43
2018-08-06T12:27:36.402Z,10.63
2018-08-06T12:30:07.531Z,11.13
2018-08-06T12:32:36.044Z,10.53
2018-08-06T12:35:05.393Z,10.70
2018-08-06T12:37:34.221Z,10.70
2018-08-06T12:40:03.076Z,10.63
2018-08-06T12:42:31.600Z,11.23
2018-08-06T12:45:00.127Z,10.60
2018-08-06T12:47:28.636Z,10.63
2018-08-06T12:49:57.158Z,10.33
2018-08-06T12:52:25.668Z,10.83
2018-08-06T12:54:54.698Z,10.53
2018-08-06T12:57:23.427Z,11.20
2018-08-06T12:59:51.944Z,11.10
2018-08-06T13:02:20.488Z,10.20
2018-08-06T13:04:48.983Z,10.57
2018-08-06T13:07:17.483Z,11.13
2018-08-06T13:09:46.000Z,10.33
2018-08-06T13:12:14.540Z,10.27
2018-08-06T13:14:43.267Z,10.63
2018-08-06T13:17:11.768Z,9.73
2018-08-06T13:19:40.274Z,10.10
2018-08-06T13:22:08.791Z,10.50
2018-08-06T13:24:37.387Z,10.93
2018-08-06T13:27:05.574Z,10.40
2018-08-06T13:29:34.130Z,10.13
2018-08-06T13:32:02.631Z,10.33
2018-08-06T13:34:31.147Z,10.93
2018-08-06T13:36:59.722Z,10.90
2018-08-06T13:39:28.193Z,10.77
2018-08-06T13:41:56.709Z,10.77
2018-08-06T13:44:25.275Z,10.57
2018-08-06T13:46:53.816Z,9.80
2018-08-06T13:49:22.264Z,11.03
2018-08-06T13:51:50.807Z,11.47
2018-08-06T13:54:19.323Z,11.37
2018-08-06T13:56:47.819Z,10.67
2018-08-06T13:59:16.407Z,10.23
2018-08-06T14:01:44.843Z,10.50
2018-08-06T14:04:13.327Z,10.30
2018-08-06T14:06:41.832Z,10.70
2018-08-06T14:09:11.886Z,10.27
2018-08-06T14:11:40.069Z,9.70
2018-08-06T14:14:09.260Z,10.53
2018-08-06T14:16:37.849Z,10.30
2018-08-06T14:19:06.955Z,10.67
2018-08-06T14:21:35.928Z,10.17
2018-08-06T14:24:04.808Z,9.43
2018-08-06T14:26:33.647Z,10.13
2018-08-06T14:29:02.323Z,10.10
2018-08-06T14:31:31.181Z,10.73
2018-08-06T14:33:59.674Z,10.37
2018-08-06T14:36:28.183Z,10.37
2018-08-06T14:38:56.684Z,10.73
2018-08-06T14:41:25.192Z,9.50
2018-08-06T14:43:53.683Z,9.43
2018-08-06T14:46:22.176Z,10.60
2018-08-06T14:48:50.677Z,9.70
2018-08-06T14:51:19.195Z,10.80
2018-08-06T14:53:47.703Z,9.60
2018-08-06T14:56:16.238Z,10.50
2018-08-06T14:58:44.751Z,10.00
2018-08-06T15:01:13.259Z,10.30
2018-08-06T15:03:41.772Z,10.57
2018-08-06T15:06:10.260Z,9.57
2018-08-06T15:08:38.764Z,10.37
2018-08-06T15:11:07.549Z,11.27
2018-08-06T15:13:36.060Z,11.07
2018-08-06T15:16:04.555Z,10.97
2018-08-06T15:18:33.059Z,10.47
2018-08-06T15:21:01.564Z,10.33
2018-08-06T15:23:30.069Z,10.37
2018-08-06T15:25:58.580Z,10.77
2018-08-06T15:28:27.096Z,11.07
2018-08-06T15:30:55.611Z,10.40
2018-08-06T15:33:24.119Z,10.70
2018-08-06T15:35:52.639Z,11.07
2018-08-06T15:38:21.146Z,10.67
2018-08-06T15:40:49.667Z,10.93
2018-08-06T15:43:18.187Z,11.03
2018-08-06T15:45:46.692Z,61.40
2018-08-06T15:48:15.224Z,55.43
2018-08-06T15:50:43.734Z,48.13
2018-08-06T15:53:12.281Z,29.87
2018-08-06T15:55:40.761Z,24.60
2018-08-06T15:58:09.273Z,24.03
2018-08-06T16:00:37.772Z,24.57
2018-08-06T16:03:06.281Z,24.13
2018-08-06T16:05:34.791Z,20.07
2018-08-06T16:08:03.307Z,21.27
2018-08-06T16:10:31.806Z,18.67
2018-08-06T16:13:00.323Z,18.17
2018-08-06T16:15:28.848Z,15.87
2018-08-06T16:17:57.410Z,13.93
2018-08-06T16:20:25.934Z,14.63
2018-08-06T16:22:54.448Z,15.37
2018-08-06T16:25:22.955Z,14.60
2018-08-06T16:27:51.471Z,13.70
2018-08-06T16:30:22.107Z,13.57
2018-08-06T16:32:50.912Z,13.20
2018-08-06T16:35:21.180Z,13.33
2018-08-06T16:37:51.091Z,13.67
2018-08-06T16:40:19.908Z,14.53
2018-08-06T16:42:49.257Z,13.60
2018-08-06T16:45:17.915Z,14.00
2018-08-06T16:47:46.603Z,12.80
2018-08-06T16:50:16.380Z,12.43
2018-08-06T16:52:45.553Z,12.67
2018-08-06T16:55:14.419Z,12.60
2018-08-06T16:57:42.708Z,14.23
2018-08-06T17:00:15.887Z,14.00
2018-08-06T17:02:44.964Z,15.57
2018-08-06T17:05:14.354Z,14.43
2018-08-06T17:07:44.308Z,14.53
2018-08-06T17:10:15.663Z,13.00
2018-08-06T17:12:45.535Z,13.87
2018-08-06T17:15:15.727Z,13.10
2018-08-06T17:17:44.876Z,13.70
2018-08-06T17:20:16.507Z,13.53
2018-08-06T17:22:46.554Z,13.00
2018-08-06T17:25:15.476Z,14.10
2018-08-06T17:27:44.223Z,13.03
2018-08-06T17:30:13.129Z,12.17
2018-08-06T17:32:41.645Z,12.60
2018-08-06T17:35:13.201Z,11.70
2018-08-06T17:37:41.734Z,12.30
2018-08-06T17:40:11.705Z,12.50
2018-08-06T17:42:40.669Z,12.07
2018-08-06T17:45:12.451Z,11.57
2018-08-06T17:47:40.950Z,12.07
2018-08-06T17:50:11.724Z,12.23
2018-08-06T17:52:40.195Z,12.07
2018-08-06T17:55:08.744Z,12.37
2018-08-06T17:57:38.175Z,12.10
2018-08-06T18:00:08.025Z,12.27
2018-08-06T18:02:36.897Z,11.90
2018-08-06T18:05:06.247Z,12.50
2018-08-06T18:07:34.752Z,10.93
2018-08-06T18:10:03.287Z,11.77
2018-08-06T18:12:31.788Z,11.70
2018-08-06T18:15:00.308Z,11.63
2018-08-06T18:17:28.490Z,11.90
2018-08-06T18:19:57.001Z,11.83
2018-08-06T18:22:25.520Z,12.20
2018-08-06T18:24:54.018Z,12.27
2018-08-06T18:27:23.104Z,11.80
2018-08-06T18:29:51.615Z,12.47
2018-08-06T18:32:20.128Z,11.47
2018-08-06T18:34:48.652Z,12.00
2018-08-06T18:37:17.148Z,12.23
2018-08-06T18:39:45.663Z,12.53
2018-08-06T18:42:14.184Z,11.53
2018-08-06T18:44:42.696Z,11.67
2018-08-06T18:47:11.211Z,11.80
2018-08-06T18:49:39.727Z,11.67
2018-08-06T18:52:08.333Z,12.00
2018-08-06T18:54:36.800Z,12.23
2018-08-06T18:57:05.319Z,12.27
2018-08-06T18:59:33.851Z,11.90
2018-08-06T19:02:02.368Z,11.63
2018-08-06T19:04:30.875Z,12.07
2018-08-06T19:06:59.367Z,11.83
2018-08-06T19:09:27.887Z,12.00
2018-08-06T19:12:00.595Z,11.93
2018-08-06T19:14:29.127Z,12.13
2018-08-06T19:16:57.644Z,12.00
2018-08-06T19:19:27.674Z,12.30
2018-08-06T19:21:57.545Z,12.73
2018-08-06T19:24:31.299Z,12.40
2018-08-06T19:26:59.872Z,11.47
2018-08-06T19:29:28.378Z,11.40
2018-08-06T19:31:56.900Z,11.70
2018-08-06T19:34:25.406Z,11.83
2018-08-06T19:36:59.280Z,12.53
2018-08-06T19:39:27.794Z,12.43
2018-08-06T19:41:56.295Z,12.87
2018-08-06T19:44:25.002Z,12.67
2018-08-06T19:46:53.520Z,12.83
2018-08-06T19:49:27.267Z,12.67
2018-08-06T19:51:55.771Z,12.67
2018-08-06T19:54:24.285Z,11.97
2018-08-06T19:56:52.811Z,12.47
2018-08-06T19:59:21.333Z,12.73
2018-08-06T20:01:49.841Z,12.67
2018-08-06T20:04:18.351Z,12.70
2018-08-06T20:06:46.859Z,12.90
2018-08-06T20:09:15.411Z,12.43
2018-08-06T20:11:43.920Z,13.00
2018-08-06T20:14:12.421Z,12.90
2018-08-06T20:16:40.927Z,12.50
2018-08-06T20:19:10.105Z,12.43
2018-08-06T20:21:38.615Z,13.17
2018-08-06T20:24:07.226Z,12.83
2018-08-06T20:26:35.882Z,12.80
2018-08-06T20:29:04.476Z,12.87
2018-08-06T20:31:32.978Z,13.30
2018-08-06T20:34:01.492Z,12.37
2018-08-06T20:36:30.024Z,12.60
2018-08-06T20:38:58.536Z,13.10
2018-08-06T20:41:27.032Z,12.40
2018-08-06T20:43:55.543Z,12.53
2018-08-06T20:46:24.047Z,12.50
2018-08-06T20:48:52.563Z,12.27
2018-08-06T20:51:21.359Z,12.10
2018-08-06T20:53:49.882Z,13.23
2018-08-06T20:56:18.399Z,12.67
2018-08-06T20:58:46.898Z,12.27
2018-08-06T21:01:15.419Z,12.97
2018-08-06T21:03:43.919Z,12.93
2018-08-06T21:06:12.442Z,13.00
2018-08-06T21:08:40.943Z,13.20
2018-08-06T21:11:09.463Z,11.87
2018-08-06T21:13:37.966Z,12.00
2018-08-06T21:16:06.479Z,13.03
2018-08-06T21:18:35.044Z,12.47
2018-08-06T21:21:03.585Z,12.40
2018-08-06T21:23:32.109Z,12.27
2018-08-06T21:26:00.616Z,12.67
2018-08-06T21:28:29.127Z,12.73
2018-08-06T21:30:57.423Z,12.93
2018-08-06T21:33:25.943Z,14.00
2018-08-06T21:35:54.455Z,12.43
2018-08-06T21:38:22.963Z,12.47
2018-08-06T21:40:51.471Z,12.73
2018-08-06T21:43:19.991Z,12.47
2018-08-06T21:45:48.581Z,12.73
2018-08-06T21:48:17.035Z,12.63
2018-08-06T21:50:45.575Z,12.87
2018-08-06T21:53:14.094Z,13.13
2018-08-06T21:55:42.595Z,12.73
2018-08-06T21:58:11.119Z,12.57
2018-08-06T22:00:41.155Z,12.93
2018-08-06T22:03:16.203Z,12.60
2018-08-06T22:05:45.479Z,12.33
2018-08-06T22:08:14.251Z,13.90
2018-08-06T22:10:42.846Z,12.77
2018-08-06T22:13:11.815Z,12.03
2018-08-06T22:15:40.615Z,12.50
2018-08-06T22:18:10.539Z,13.03
2018-08-06T22:20:39.063Z,12.57
2018-08-06T22:23:08.207Z,12.83
2018-08-06T22:25:36.501Z,12.90
2018-08-06T22:28:05.880Z,13.17
2018-08-06T22:30:34.069Z,13.27
2018-08-06T22:33:02.572Z,13.17
2018-08-06T22:35:31.093Z,13.27
2018-08-06T22:37:59.627Z,13.43
2018-08-06T22:40:28.160Z,12.33
2018-08-06T22:42:56.667Z,12.53
2018-08-06T22:45:25.194Z,13.37
2018-08-06T22:47:53.694Z,13.37
2018-08-06T22:50:22.204Z,12.80
2018-08-06T22:52:50.721Z,13.30
2018-08-06T22:55:19.212Z,12.67
2018-08-06T22:57:47.715Z,13.80
2018-08-06T23:00:17.301Z,14.07
2018-08-06T23:02:46.251Z,12.70
2018-08-06T23:05:16.211Z,12.50
2018-08-06T23:07:45.056Z,13.00
2018-08-06T23:10:15.088Z,13.03
2018-08-06T23:12:43.687Z,13.67
2018-08-06T23:15:13.944Z,12.67
2018-08-06T23:17:43.041Z,13.10
2018-08-06T23:20:11.507Z,13.23
2018-08-06T23:22:40.350Z,13.20
2018-08-06T23:25:09.039Z,13.47
2018-08-06T23:27:38.646Z,13.60
2018-08-06T23:30:10.842Z,13.43
2018-08-06T23:32:39.847Z,13.67
2018-08-06T23:35:09.922Z,12.90
2018-08-06T23:37:39.047Z,13.00
2018-08-06T23:40:08.514Z,13.10
2018-08-06T23:42:37.109Z,13.17
2018-08-06T23:45:07.303Z,13.23
2018-08-06T23:47:36.699Z,13.20
2018-08-06T23:50:06.704Z,13.60
2018-08-06T23:52:35.208Z,13.37
2018-08-06T23:55:03.715Z,13.07
2018-08-06T23:57:32.219Z,13.03
